sensor_id;sensor_type;location;lat;lon;timestamp;temperature;humidity
8475;DHT22;4274;52.012;8.448;2022-10-31T00:00:43;11.80;99.90
8475;DHT22;4274;52.012;8.448;2022-10-31T00:03:09;11.80;99.90
8475;DHT22;4274;52.012;8.448;2022-10-31T00:05:35;11.80;99.90
8475;DHT22;4274;52.012;8.448;2022-10-31T00:08:00;11.80;99.90
8475;DHT22;4274;52.012;8.448;2022-10-31T00:10:26;11.70;99.90
8475;DHT22;4274;52.012;8.448;2022-10-31T00:12:51;11.70;99.90
8475;DHT22;4274;52.012;8.448;2022-10-31T00:15:17;11.70;99.90
8475;DHT22;4274;52.012;8.448;2022-10-31T00:17:42;11.70;99.90
8475;DHT22;4274;52.012;8.448;2022-10-31T00:20:08;11.60;99.90
8475;DHT22;4274;52.012;8.448;2022-10-31T00:22:34;11.60;99.90
8475;DHT22;4274;52.012;8.448;2022-10-31T00:24:59;11.60;99.90
8475;DHT22;4274;52.012;8.448;2022-10-31T00:27:25;11.60;99.90
8475;DHT22;4274;52.012;8.448;2022-10-31T00:29:50;11.60;99.90
8475;DHT22;4274;52.012;8.448;2022-10-31T00:32:16;11.60;99.90
8475;DHT22;4274;52.012;8.448;2022-10-31T00:34:42;11.60;99.90
8475;DHT22;4274;52.012;8.448;2022-10-31T00:37:07;11.60;99.90
8475;DHT22;4274;52.012;8.448;2022-10-31T00:39:33;11.60;99.90
8475;DHT22;4274;52.012;8.448;2022-10-31T00:41:58;11.60;99.90
8475;DHT22;4274;52.012;8.448;2022-10-31T00:44:24;11.60;99.90
8475;DHT22;4274;52.012;8.448;2022-10-31T00:46:49;11.50;99.90
8475;DHT22;4274;52.012;8.448;2022-10-31T00:49:15;11.50;99.90
8475;DHT22;4274;52.012;8.448;2022-10-31T00:51:40;11.50;99.90
8475;DHT22;4274;52.012;8.448;2022-10-31T00:54:07;11.50;99.90
8475;DHT22;4274;52.012;8.448;2022-10-31T00:56:32;11.50;99.90
8475;DHT22;4274;52.012;8.448;2022-10-31T00:58:58;11.50;99.90
8475;DHT22;4274;52.012;8.448;2022-10-31T01:01:23;11.40;99.90
8475;DHT22;4274;52.012;8.448;2022-10-31T01:03:49;11.30;99.90
8475;DHT22;4274;52.012;8.448;2022-10-31T01:06:14;11.30;99.90
8475;DHT22;4274;52.012;8.448;2022-10-31T01:08:41;11.30;99.90
8475;DHT22;4274;52.012;8.448;2022-10-31T01:11:10;11.30;99.90
8475;DHT22;4274;52.012;8.448;2022-10-31T01:13:36;11.30;99.90
8475;DHT22;4274;52.012;8.448;2022-10-31T01:16:04;11.20;99.90
8475;DHT22;4274;52.012;8.448;2022-10-31T01:18:30;11.10;99.90
8475;DHT22;4274;52.012;8.448;2022-10-31T01:21:08;11.10;99.90
8475;DHT22;4274;52.012;8.448;2022-10-31T01:23:34;11.10;99.90
8475;DHT22;4274;52.012;8.448;2022-10-31T01:26:06;11.00;99.90
8475;DHT22;4274;52.012;8.448;2022-10-31T01:28:33;11.00;99.90
8475;DHT22;4274;52.012;8.448;2022-10-31T01:31:08;11.00;99.90
8475;DHT22;4274;52.012;8.448;2022-10-31T01:33:34;11.00;99.90
8475;DHT22;4274;52.012;8.448;2022-10-31T01:36:00;11.10;99.90
8475;DHT22;4274;52.012;8.448;2022-10-31T01:38:26;11.10;99.90
8475;DHT22;4274;52.012;8.448;2022-10-31T01:40:52;11.00;99.90
8475;DHT22;4274;52.012;8.448;2022-10-31T01:43:19;11.00;99.90
8475;DHT22;4274;52.012;8.448;2022-10-31T01:45:50;11.00;99.90
8475;DHT22;4274;52.012;8.448;2022-10-31T01:48:19;11.00;99.90
8475;DHT22;4274;52.012;8.448;2022-10-31T01:50:47;11.00;99.90
8475;DHT22;4274;52.012;8.448;2022-10-31T01:53:15;11.00;99.90
8475;DHT22;4274;52.012;8.448;2022-10-31T01:55:44;11.00;99.90
8475;DHT22;4274;52.012;8.448;2022-10-31T01:58:23;10.90;99.90
8475;DHT22;4274;52.012;8.448;2022-10-31T02:00:53;10.90;99.90
8475;DHT22;4274;52.012;8.448;2022-10-31T02:03:21;10.90;99.90
8475;DHT22;4274;52.012;8.448;2022-10-31T02:05:47;10.90;99.90
8475;DHT22;4274;52.012;8.448;2022-10-31T02:08:32;10.90;99.90
8475;DHT22;4274;52.012;8.448;2022-10-31T02:11:00;10.90;99.90
8475;DHT22;4274;52.012;8.448;2022-10-31T02:13:28;10.90;99.90
8475;DHT22;4274;52.012;8.448;2022-10-31T02:15:56;10.90;99.90
8475;DHT22;4274;52.012;8.448;2022-10-31T02:18:24;10.90;99.90
8475;DHT22;4274;52.012;8.448;2022-10-31T02:24:11;10.90;99.90
8475;DHT22;4274;52.012;8.448;2022-10-31T02:29:39;10.90;99.90
8475;DHT22;4274;52.012;8.448;2022-10-31T02:32:20;10.90;99.90
8475;DHT22;4274;52.012;8.448;2022-10-31T02:40:53;10.80;99.90
8475;DHT22;4274;52.012;8.448;2022-10-31T02:43:38;10.90;99.90
8475;DHT22;4274;52.012;8.448;2022-10-31T02:46:10;10.90;99.90
8475;DHT22;4274;52.012;8.448;2022-10-31T02:48:39;10.90;99.90
8475;DHT22;4274;52.012;8.448;2022-10-31T02:51:06;10.90;99.90
8475;DHT22;4274;52.012;8.448;2022-10-31T02:53:34;11.00;99.90
8475;DHT22;4274;52.012;8.448;2022-10-31T02:58:41;11.10;99.90
8475;DHT22;4274;52.012;8.448;2022-10-31T03:07:30;11.30;99.90
8475;DHT22;4274;52.012;8.448;2022-10-31T03:19:05;11.50;99.90
8475;DHT22;4274;52.012;8.448;2022-10-31T03:21:43;11.60;99.90
8475;DHT22;4274;52.012;8.448;2022-10-31T03:24:10;11.60;99.90
8475;DHT22;4274;52.012;8.448;2022-10-31T03:26:41;11.60;99.90
8475;DHT22;4274;52.012;8.448;2022-10-31T03:29:11;11.70;99.90
8475;DHT22;4274;52.012;8.448;2022-10-31T03:31:51;11.70;99.90
8475;DHT22;4274;52.012;8.448;2022-10-31T03:34:19;11.70;99.90
8475;DHT22;4274;52.012;8.448;2022-10-31T03:36:48;11.70;99.90
8475;DHT22;4274;52.012;8.448;2022-10-31T03:39:16;11.70;99.90
8475;DHT22;4274;52.012;8.448;2022-10-31T03:41:47;11.70;99.90
8475;DHT22;4274;52.012;8.448;2022-10-31T03:44:19;11.60;99.90
8475;DHT22;4274;52.012;8.448;2022-10-31T03:46:46;11.60;99.90
8475;DHT22;4274;52.012;8.448;2022-10-31T03:49:12;11.50;99.90
8475;DHT22;4274;52.012;8.448;2022-10-31T03:51:47;11.40;99.90
8475;DHT22;4274;52.012;8.448;2022-10-31T03:54:19;11.40;99.90
8475;DHT22;4274;52.012;8.448;2022-10-31T03:56:58;11.30;99.90
8475;DHT22;4274;52.012;8.448;2022-10-31T03:59:33;11.20;99.90
8475;DHT22;4274;52.012;8.448;2022-10-31T04:02:06;11.10;99.90
8475;DHT22;4274;52.012;8.448;2022-10-31T04:04:34;11.10;99.90
8475;DHT22;4274;52.012;8.448;2022-10-31T04:07:01;11.00;99.90
8475;DHT22;4274;52.012;8.448;2022-10-31T04:09:28;11.00;99.90
8475;DHT22;4274;52.012;8.448;2022-10-31T04:11:58;11.00;99.90
8475;DHT22;4274;52.012;8.448;2022-10-31T04:14:28;10.90;99.90
8475;DHT22;4274;52.012;8.448;2022-10-31T04:16:55;10.90;99.90
8475;DHT22;4274;52.012;8.448;2022-10-31T04:19:20;10.90;99.90
8475;DHT22;4274;52.012;8.448;2022-10-31T04:21:46;10.90;99.90
8475;DHT22;4274;52.012;8.448;2022-10-31T04:24:12;10.90;99.90
8475;DHT22;4274;52.012;8.448;2022-10-31T04:26:37;10.90;99.90
8475;DHT22;4274;52.012;8.448;2022-10-31T04:29:03;10.80;99.90
8475;DHT22;4274;52.012;8.448;2022-10-31T04:31:28;10.70;99.90
8475;DHT22;4274;52.012;8.448;2022-10-31T04:33:54;10.70;99.90
8475;DHT22;4274;52.012;8.448;2022-10-31T04:36:20;10.70;99.90
8475;DHT22;4274;52.012;8.448;2022-10-31T04:38:45;10.70;99.90
8475;DHT22;4274;52.012;8.448;2022-10-31T04:41:11;10.70;99.90
8475;DHT22;4274;52.012;8.448;2022-10-31T04:43:36;10.70;99.90
8475;DHT22;4274;52.012;8.448;2022-10-31T04:46:03;10.70;99.90
8475;DHT22;4274;52.012;8.448;2022-10-31T04:48:28;10.60;99.90
8475;DHT22;4274;52.012;8.448;2022-10-31T04:50:59;10.60;99.90
8475;DHT22;4274;52.012;8.448;2022-10-31T04:53:24;10.50;99.90
8475;DHT22;4274;52.012;8.448;2022-10-31T04:55:50;10.50;99.90
8475;DHT22;4274;52.012;8.448;2022-10-31T04:58:15;10.50;99.90
8475;DHT22;4274;52.012;8.448;2022-10-31T05:00:41;10.50;99.90
8475;DHT22;4274;52.012;8.448;2022-10-31T05:03:06;10.50;99.90
8475;DHT22;4274;52.012;8.448;2022-10-31T05:05:32;10.50;99.90
8475;DHT22;4274;52.012;8.448;2022-10-31T05:07:58;10.40;99.90
8475;DHT22;4274;52.012;8.448;2022-10-31T05:10:27;10.30;99.90
8475;DHT22;4274;52.012;8.448;2022-10-31T05:12:58;10.30;99.90
8475;DHT22;4274;52.012;8.448;2022-10-31T05:15:25;10.30;99.90
8475;DHT22;4274;52.012;8.448;2022-10-31T05:17:52;10.20;99.90
8475;DHT22;4274;52.012;8.448;2022-10-31T05:20:19;10.30;99.90
8475;DHT22;4274;52.012;8.448;2022-10-31T05:22:47;10.20;99.90
8475;DHT22;4274;52.012;8.448;2022-10-31T05:25:13;10.20;99.90
8475;DHT22;4274;52.012;8.448;2022-10-31T05:27:43;10.30;99.90
8475;DHT22;4274;52.012;8.448;2022-10-31T05:30:10;10.30;99.90
8475;DHT22;4274;52.012;8.448;2022-10-31T05:32:41;10.30;99.90
8475;DHT22;4274;52.012;8.448;2022-10-31T05:35:09;10.30;99.90
8475;DHT22;4274;52.012;8.448;2022-10-31T05:37:35;10.20;99.90
8475;DHT22;4274;52.012;8.448;2022-10-31T05:40:05;10.30;99.90
8475;DHT22;4274;52.012;8.448;2022-10-31T05:42:31;10.30;99.90
8475;DHT22;4274;52.012;8.448;2022-10-31T05:44:56;10.30;99.90
8475;DHT22;4274;52.012;8.448;2022-10-31T05:47:22;10.30;99.90
8475;DHT22;4274;52.012;8.448;2022-10-31T05:49:48;10.30;99.90
8475;DHT22;4274;52.012;8.448;2022-10-31T05:52:14;10.20;99.90
8475;DHT22;4274;52.012;8.448;2022-10-31T05:54:39;10.10;99.90
8475;DHT22;4274;52.012;8.448;2022-10-31T05:57:05;10.20;99.90
8475;DHT22;4274;52.012;8.448;2022-10-31T05:59:30;10.20;99.90
8475;DHT22;4274;52.012;8.448;2022-10-31T06:01:56;10.20;99.90
8475;DHT22;4274;52.012;8.448;2022-10-31T06:04:22;10.20;99.90
8475;DHT22;4274;52.012;8.448;2022-10-31T06:06:47;10.10;99.90
8475;DHT22;4274;52.012;8.448;2022-10-31T06:09:13;10.10;99.90
8475;DHT22;4274;52.012;8.448;2022-10-31T06:11:38;10.00;99.90
8475;DHT22;4274;52.012;8.448;2022-10-31T06:14:04;10.00;99.90
8475;DHT22;4274;52.012;8.448;2022-10-31T06:16:30;10.00;99.90
8475;DHT22;4274;52.012;8.448;2022-10-31T06:18:56;10.00;99.90
8475;DHT22;4274;52.012;8.448;2022-10-31T06:21:21;10.00;99.90
8475;DHT22;4274;52.012;8.448;2022-10-31T06:23:47;10.10;99.90
8475;DHT22;4274;52.012;8.448;2022-10-31T06:26:13;10.20;99.90
8475;DHT22;4274;52.012;8.448;2022-10-31T06:28:38;10.30;99.90
8475;DHT22;4274;52.012;8.448;2022-10-31T06:31:04;10.40;99.90
8475;DHT22;4274;52.012;8.448;2022-10-31T06:33:29;10.40;99.90
8475;DHT22;4274;52.012;8.448;2022-10-31T06:35:55;10.40;99.90
8475;DHT22;4274;52.012;8.448;2022-10-31T06:38:21;10.40;99.90
8475;DHT22;4274;52.012;8.448;2022-10-31T06:40:46;10.40;99.90
8475;DHT22;4274;52.012;8.448;2022-10-31T06:43:12;10.40;99.90
8475;DHT22;4274;52.012;8.448;2022-10-31T06:45:39;10.40;99.90
8475;DHT22;4274;52.012;8.448;2022-10-31T06:48:07;10.50;99.90
8475;DHT22;4274;52.012;8.448;2022-10-31T06:50:33;10.50;99.90
8475;DHT22;4274;52.012;8.448;2022-10-31T06:52:58;10.60;99.90
8475;DHT22;4274;52.012;8.448;2022-10-31T06:55:25;10.70;99.90
8475;DHT22;4274;52.012;8.448;2022-10-31T06:57:58;10.90;99.90
8475;DHT22;4274;52.012;8.448;2022-10-31T07:00:26;11.10;99.90
8475;DHT22;4274;52.012;8.448;2022-10-31T07:03:00;11.20;99.90
8475;DHT22;4274;52.012;8.448;2022-10-31T07:05:27;11.30;99.90
8475;DHT22;4274;52.012;8.448;2022-10-31T07:07:57;11.30;99.90
8475;DHT22;4274;52.012;8.448;2022-10-31T07:10:25;11.40;99.90
8475;DHT22;4274;52.012;8.448;2022-10-31T07:12:59;11.60;99.90
8475;DHT22;4274;52.012;8.448;2022-10-31T07:15:26;11.70;99.90
8475;DHT22;4274;52.012;8.448;2022-10-31T07:17:52;11.80;99.90
8475;DHT22;4274;52.012;8.448;2022-10-31T07:20:18;11.90;99.90
8475;DHT22;4274;52.012;8.448;2022-10-31T07:22:44;12.10;99.90
8475;DHT22;4274;52.012;8.448;2022-10-31T07:25:10;12.20;99.90
8475;DHT22;4274;52.012;8.448;2022-10-31T07:27:39;12.30;99.90
8475;DHT22;4274;52.012;8.448;2022-10-31T07:30:07;12.40;99.90
8475;DHT22;4274;52.012;8.448;2022-10-31T07:32:47;12.50;99.90
8475;DHT22;4274;52.012;8.448;2022-10-31T07:35:15;12.70;99.90
8475;DHT22;4274;52.012;8.448;2022-10-31T07:37:41;12.90;99.90
8475;DHT22;4274;52.012;8.448;2022-10-31T07:40:07;13.00;99.90
8475;DHT22;4274;52.012;8.448;2022-10-31T07:45:03;13.40;99.90
8475;DHT22;4274;52.012;8.448;2022-10-31T07:47:29;13.60;99.90
8475;DHT22;4274;52.012;8.448;2022-10-31T07:49:55;13.80;99.90
8475;DHT22;4274;52.012;8.448;2022-10-31T07:52:21;14.00;99.90
8475;DHT22;4274;52.012;8.448;2022-10-31T07:54:46;14.20;99.90
8475;DHT22;4274;52.012;8.448;2022-10-31T07:57:12;14.30;99.90
8475;DHT22;4274;52.012;8.448;2022-10-31T07:59:37;14.50;99.90
8475;DHT22;4274;52.012;8.448;2022-10-31T08:02:03;14.60;99.90
8475;DHT22;4274;52.012;8.448;2022-10-31T08:04:28;14.60;99.90
8475;DHT22;4274;52.012;8.448;2022-10-31T08:06:54;14.70;99.90
8475;DHT22;4274;52.012;8.448;2022-10-31T08:09:19;14.70;99.90
8475;DHT22;4274;52.012;8.448;2022-10-31T08:11:45;14.90;99.90
8475;DHT22;4274;52.012;8.448;2022-10-31T08:14:10;15.00;99.90
8475;DHT22;4274;52.012;8.448;2022-10-31T08:16:36;15.20;99.90
8475;DHT22;4274;52.012;8.448;2022-10-31T08:19:01;15.20;99.90
8475;DHT22;4274;52.012;8.448;2022-10-31T08:21:27;15.30;99.90
8475;DHT22;4274;52.012;8.448;2022-10-31T08:23:52;15.40;99.90
8475;DHT22;4274;52.012;8.448;2022-10-31T08:26:18;15.40;99.90
8475;DHT22;4274;52.012;8.448;2022-10-31T08:28:43;15.40;99.90
8475;DHT22;4274;52.012;8.448;2022-10-31T08:31:09;15.50;99.90
8475;DHT22;4274;52.012;8.448;2022-10-31T08:33:35;15.50;99.90
8475;DHT22;4274;52.012;8.448;2022-10-31T08:36:01;15.50;99.90
8475;DHT22;4274;52.012;8.448;2022-10-31T08:38:26;15.40;99.90
8475;DHT22;4274;52.012;8.448;2022-10-31T08:40:52;15.40;99.90
8475;DHT22;4274;52.012;8.448;2022-10-31T08:43:18;15.30;99.90
8475;DHT22;4274;52.012;8.448;2022-10-31T08:45:47;15.30;99.90
8475;DHT22;4274;52.012;8.448;2022-10-31T08:48:15;15.30;99.90
8475;DHT22;4274;52.012;8.448;2022-10-31T08:50:42;15.30;99.90
8475;DHT22;4274;52.012;8.448;2022-10-31T08:53:13;15.30;99.90
8475;DHT22;4274;52.012;8.448;2022-10-31T08:55:40;15.40;99.90
8475;DHT22;4274;52.012;8.448;2022-10-31T08:58:09;15.50;99.90
8475;DHT22;4274;52.012;8.448;2022-10-31T09:00:35;15.60;99.90
8475;DHT22;4274;52.012;8.448;2022-10-31T09:03:03;15.70;99.90
8475;DHT22;4274;52.012;8.448;2022-10-31T09:05:30;15.80;99.90
8475;DHT22;4274;52.012;8.448;2022-10-31T09:07:57;16.00;99.90
8475;DHT22;4274;52.012;8.448;2022-10-31T09:10:23;16.10;99.90
8475;DHT22;4274;52.012;8.448;2022-10-31T09:12:56;16.20;99.90
8475;DHT22;4274;52.012;8.448;2022-10-31T09:15:23;16.40;99.90
8475;DHT22;4274;52.012;8.448;2022-10-31T09:17:49;16.40;99.90
8475;DHT22;4274;52.012;8.448;2022-10-31T09:20:14;16.50;99.90
8475;DHT22;4274;52.012;8.448;2022-10-31T09:22:41;16.50;99.90
8475;DHT22;4274;52.012;8.448;2022-10-31T09:25:06;16.60;99.90
8475;DHT22;4274;52.012;8.448;2022-10-31T09:27:32;16.60;99.90
8475;DHT22;4274;52.012;8.448;2022-10-31T09:29:58;16.60;99.90
8475;DHT22;4274;52.012;8.448;2022-10-31T09:32:23;16.70;99.90
8475;DHT22;4274;52.012;8.448;2022-10-31T09:34:49;16.80;99.90
8475;DHT22;4274;52.012;8.448;2022-10-31T09:37:14;16.80;99.90
8475;DHT22;4274;52.012;8.448;2022-10-31T09:39:40;16.80;99.90
8475;DHT22;4274;52.012;8.448;2022-10-31T09:47:53;16.70;99.90
8475;DHT22;4274;52.012;8.448;2022-10-31T09:50:22;16.70;99.90
8475;DHT22;4274;52.012;8.448;2022-10-31T09:53:01;16.70;99.90
8475;DHT22;4274;52.012;8.448;2022-10-31T09:55:47;16.80;99.90
8475;DHT22;4274;52.012;8.448;2022-10-31T09:58:28;17.00;99.90
8475;DHT22;4274;52.012;8.448;2022-10-31T10:00:59;17.20;99.90
8475;DHT22;4274;52.012;8.448;2022-10-31T10:03:44;17.30;99.90
8475;DHT22;4274;52.012;8.448;2022-10-31T10:06:18;17.30;99.90
8475;DHT22;4274;52.012;8.448;2022-10-31T10:08:44;17.40;99.90
8475;DHT22;4274;52.012;8.448;2022-10-31T10:22:38;17.70;99.90
8475;DHT22;4274;52.012;8.448;2022-10-31T10:33:16;18.20;99.90
8475;DHT22;4274;52.012;8.448;2022-10-31T10:35:58;18.20;99.90
8475;DHT22;4274;52.012;8.448;2022-10-31T10:41:14;18.60;99.90
8475;DHT22;4274;52.012;8.448;2022-10-31T10:43:41;18.90;99.90
8475;DHT22;4274;52.012;8.448;2022-10-31T10:49:18;19.60;99.90
8475;DHT22;4274;52.012;8.448;2022-10-31T10:54:45;20.60;99.90
8475;DHT22;4274;52.012;8.448;2022-10-31T11:00:02;21.10;99.90
8475;DHT22;4274;52.012;8.448;2022-10-31T11:02:32;21.40;99.90
8475;DHT22;4274;52.012;8.448;2022-10-31T11:05:00;22.10;99.90
8475;DHT22;4274;52.012;8.448;2022-10-31T11:07:36;22.70;99.90
8475;DHT22;4274;52.012;8.448;2022-10-31T11:10:11;22.90;99.90
8475;DHT22;4274;52.012;8.448;2022-10-31T11:12:40;22.90;99.90
8475;DHT22;4274;52.012;8.448;2022-10-31T11:15:21;23.10;99.90
8475;DHT22;4274;52.012;8.448;2022-10-31T11:17:49;23.10;99.90
8475;DHT22;4274;52.012;8.448;2022-10-31T11:22:43;23.40;99.90
8475;DHT22;4274;52.012;8.448;2022-10-31T11:25:22;23.60;99.90
8475;DHT22;4274;52.012;8.448;2022-10-31T11:28:04;23.70;99.90
8475;DHT22;4274;52.012;8.448;2022-10-31T11:30:31;23.40;99.90
8475;DHT22;4274;52.012;8.448;2022-10-31T11:33:01;22.90;99.90
8475;DHT22;4274;52.012;8.448;2022-10-31T11:35:27;22.70;99.90
8475;DHT22;4274;52.012;8.448;2022-10-31T11:37:56;22.70;99.90
8475;DHT22;4274;52.012;8.448;2022-10-31T11:40:26;22.40;99.90
8475;DHT22;4274;52.012;8.448;2022-10-31T11:42:54;21.90;99.90
8475;DHT22;4274;52.012;8.448;2022-10-31T11:45:32;21.40;99.90
8475;DHT22;4274;52.012;8.448;2022-10-31T11:47:59;20.90;99.90
8475;DHT22;4274;52.012;8.448;2022-10-31T11:50:38;20.50;99.90
8475;DHT22;4274;52.012;8.448;2022-10-31T11:53:17;20.10;99.90
8475;DHT22;4274;52.012;8.448;2022-10-31T11:55:45;19.70;99.90
8475;DHT22;4274;52.012;8.448;2022-10-31T11:58:31;19.40;99.90
8475;DHT22;4274;52.012;8.448;2022-10-31T12:00:57;19.10;99.90
8475;DHT22;4274;52.012;8.448;2022-10-31T12:08:26;18.80;99.90
8475;DHT22;4274;52.012;8.448;2022-10-31T12:13:36;18.80;99.90
8475;DHT22;4274;52.012;8.448;2022-10-31T12:16:31;18.80;99.90
8475;DHT22;4274;52.012;8.448;2022-10-31T12:19:24;18.90;99.90
8475;DHT22;4274;52.012;8.448;2022-10-31T12:22:13;19.00;99.90
8475;DHT22;4274;52.012;8.448;2022-10-31T12:30:24;20.20;99.90
8475;DHT22;4274;52.012;8.448;2022-10-31T12:38:50;21.30;99.90
8475;DHT22;4274;52.012;8.448;2022-10-31T12:41:49;21.50;99.90
8475;DHT22;4274;52.012;8.448;2022-10-31T12:56:11;20.90;99.90
8475;DHT22;4274;52.012;8.448;2022-10-31T12:58:52;20.60;99.90
8475;DHT22;4274;52.012;8.448;2022-10-31T13:01:24;20.10;99.90
8475;DHT22;4274;52.012;8.448;2022-10-31T13:06:43;19.40;99.90
8475;DHT22;4274;52.012;8.448;2022-10-31T13:09:16;19.00;99.90
8475;DHT22;4274;52.012;8.448;2022-10-31T13:11:47;18.70;99.90
8475;DHT22;4274;52.012;8.448;2022-10-31T13:17:00;18.40;99.90
8475;DHT22;4274;52.012;8.448;2022-10-31T13:19:44;18.30;99.90
8475;DHT22;4274;52.012;8.448;2022-10-31T13:22:16;18.30;99.90
8475;DHT22;4274;52.012;8.448;2022-10-31T13:25:03;18.30;99.90
8475;DHT22;4274;52.012;8.448;2022-10-31T13:28:21;18.30;99.90
8475;DHT22;4274;52.012;8.448;2022-10-31T13:30:41;18.30;99.90
8475;DHT22;4274;52.012;8.448;2022-10-31T13:33:42;18.40;99.90
8475;DHT22;4274;52.012;8.448;2022-10-31T13:44:21;18.50;99.90
8475;DHT22;4274;52.012;8.448;2022-10-31T13:46:49;18.50;99.90
8475;DHT22;4274;52.012;8.448;2022-10-31T13:54:39;18.50;99.90
8475;DHT22;4274;52.012;8.448;2022-10-31T14:02:48;18.40;99.90
8475;DHT22;4274;52.012;8.448;2022-10-31T14:07:52;18.40;99.90
8475;DHT22;4274;52.012;8.448;2022-10-31T14:10:27;18.40;99.90
8475;DHT22;4274;52.012;8.448;2022-10-31T14:13:06;18.30;99.90
8475;DHT22;4274;52.012;8.448;2022-10-31T14:15:32;18.30;99.90
8475;DHT22;4274;52.012;8.448;2022-10-31T14:18:03;18.30;99.90
8475;DHT22;4274;52.012;8.448;2022-10-31T14:20:43;18.30;99.90
8475;DHT22;4274;52.012;8.448;2022-10-31T14:25:50;18.20;99.90
8475;DHT22;4274;52.012;8.448;2022-10-31T14:28:30;18.20;99.90
8475;DHT22;4274;52.012;8.448;2022-10-31T14:30:58;18.20;99.90
8475;DHT22;4274;52.012;8.448;2022-10-31T14:33:26;18.10;99.90
8475;DHT22;4274;52.012;8.448;2022-10-31T14:44:17;18.00;99.90
8475;DHT22;4274;52.012;8.448;2022-10-31T14:52:52;17.90;99.90
8475;DHT22;4274;52.012;8.448;2022-10-31T14:55:19;17.80;99.90
8475;DHT22;4274;52.012;8.448;2022-10-31T14:57:59;17.80;99.90
8475;DHT22;4274;52.012;8.448;2022-10-31T15:00:27;17.70;99.90
8475;DHT22;4274;52.012;8.448;2022-10-31T15:03:13;17.70;99.90
8475;DHT22;4274;52.012;8.448;2022-10-31T15:05:48;17.70;99.90
8475;DHT22;4274;52.012;8.448;2022-10-31T15:08:38;17.60;99.90
8475;DHT22;4274;52.012;8.448;2022-10-31T15:11:18;17.60;99.90
8475;DHT22;4274;52.012;8.448;2022-10-31T15:13:52;17.50;99.90
8475;DHT22;4274;52.012;8.448;2022-10-31T15:16:23;17.50;99.90
8475;DHT22;4274;52.012;8.448;2022-10-31T15:18:55;17.40;99.90
8475;DHT22;4274;52.012;8.448;2022-10-31T15:21:24;17.40;99.90
8475;DHT22;4274;52.012;8.448;2022-10-31T15:23:52;17.40;99.90
8475;DHT22;4274;52.012;8.448;2022-10-31T15:26:21;17.40;99.90
8475;DHT22;4274;52.012;8.448;2022-10-31T15:29:01;17.40;99.90
8475;DHT22;4274;52.012;8.448;2022-10-31T15:31:28;17.40;99.90
8475;DHT22;4274;52.012;8.448;2022-10-31T15:33:54;17.40;99.90
8475;DHT22;4274;52.012;8.448;2022-10-31T15:36:24;17.40;99.90
8475;DHT22;4274;52.012;8.448;2022-10-31T15:38:51;17.30;99.90
8475;DHT22;4274;52.012;8.448;2022-10-31T15:41:33;17.30;99.90
8475;DHT22;4274;52.012;8.448;2022-10-31T15:44:07;17.30;99.90
8475;DHT22;4274;52.012;8.448;2022-10-31T15:46:37;17.30;99.90
8475;DHT22;4274;52.012;8.448;2022-10-31T15:49:03;17.30;99.90
8475;DHT22;4274;52.012;8.448;2022-10-31T15:51:32;17.30;99.90
8475;DHT22;4274;52.012;8.448;2022-10-31T15:53:59;17.30;99.90
8475;DHT22;4274;52.012;8.448;2022-10-31T15:56:30;17.30;99.90
8475;DHT22;4274;52.012;8.448;2022-10-31T15:58:58;17.30;99.90
8475;DHT22;4274;52.012;8.448;2022-10-31T16:01:30;17.30;99.90
8475;DHT22;4274;52.012;8.448;2022-10-31T16:04:19;17.30;99.90
8475;DHT22;4274;52.012;8.448;2022-10-31T16:07:13;17.20;99.90
8475;DHT22;4274;52.012;8.448;2022-10-31T16:12:22;17.10;99.90
8475;DHT22;4274;52.012;8.448;2022-10-31T16:14:49;17.10;99.90
8475;DHT22;4274;52.012;8.448;2022-10-31T16:17:17;17.00;99.90
8475;DHT22;4274;52.012;8.448;2022-10-31T16:19:56;17.00;99.90
8475;DHT22;4274;52.012;8.448;2022-10-31T16:22:35;17.00;99.90
8475;DHT22;4274;52.012;8.448;2022-10-31T16:27:32;16.90;99.90
8475;DHT22;4274;52.012;8.448;2022-10-31T16:30:00;16.80;99.90
8475;DHT22;4274;52.012;8.448;2022-10-31T16:32:37;16.80;99.90
8475;DHT22;4274;52.012;8.448;2022-10-31T16:37:37;16.80;99.90
8475;DHT22;4274;52.012;8.448;2022-10-31T16:40:03;16.70;99.90
8475;DHT22;4274;52.012;8.448;2022-10-31T16:42:29;16.70;99.90
8475;DHT22;4274;52.012;8.448;2022-10-31T16:44:55;16.70;99.90
8475;DHT22;4274;52.012;8.448;2022-10-31T16:47:21;16.70;99.90
8475;DHT22;4274;52.012;8.448;2022-10-31T16:49:48;16.60;99.90
8475;DHT22;4274;52.012;8.448;2022-10-31T16:52:15;16.60;99.90
8475;DHT22;4274;52.012;8.448;2022-10-31T16:54:41;16.50;99.90
8475;DHT22;4274;52.012;8.448;2022-10-31T16:57:17;16.50;99.90
8475;DHT22;4274;52.012;8.448;2022-10-31T16:59:44;16.40;99.90
8475;DHT22;4274;52.012;8.448;2022-10-31T17:02:16;16.40;99.90
8475;DHT22;4274;52.012;8.448;2022-10-31T17:04:42;16.50;99.90
8475;DHT22;4274;52.012;8.448;2022-10-31T17:07:09;16.50;99.90
8475;DHT22;4274;52.012;8.448;2022-10-31T17:09:34;16.50;99.90
8475;DHT22;4274;52.012;8.448;2022-10-31T17:12:00;16.50;99.90
8475;DHT22;4274;52.012;8.448;2022-10-31T17:14:25;16.50;99.90
8475;DHT22;4274;52.012;8.448;2022-10-31T17:16:51;16.60;99.90
8475;DHT22;4274;52.012;8.448;2022-10-31T17:19:17;16.60;99.90
8475;DHT22;4274;52.012;8.448;2022-10-31T17:21:42;16.60;99.90
8475;DHT22;4274;52.012;8.448;2022-10-31T17:24:12;16.60;99.90
8475;DHT22;4274;52.012;8.448;2022-10-31T17:26:38;16.70;99.90
8475;DHT22;4274;52.012;8.448;2022-10-31T17:29:03;16.70;99.90
8475;DHT22;4274;52.012;8.448;2022-10-31T17:31:31;16.70;99.90
8475;DHT22;4274;52.012;8.448;2022-10-31T17:33:58;16.70;99.90
8475;DHT22;4274;52.012;8.448;2022-10-31T17:36:25;16.70;99.90
8475;DHT22;4274;52.012;8.448;2022-10-31T17:38:50;16.70;99.90
8475;DHT22;4274;52.012;8.448;2022-10-31T17:41:16;16.70;99.90
8475;DHT22;4274;52.012;8.448;2022-10-31T17:43:42;16.70;99.90
8475;DHT22;4274;52.012;8.448;2022-10-31T17:46:08;16.70;99.90
8475;DHT22;4274;52.012;8.448;2022-10-31T17:48:35;16.60;99.90
8475;DHT22;4274;52.012;8.448;2022-10-31T17:51:02;16.70;99.90
8475;DHT22;4274;52.012;8.448;2022-10-31T17:53:29;16.70;99.90
8475;DHT22;4274;52.012;8.448;2022-10-31T17:56:00;16.70;99.90
8475;DHT22;4274;52.012;8.448;2022-10-31T17:58:26;16.70;99.90
8475;DHT22;4274;52.012;8.448;2022-10-31T18:00:52;16.60;99.90
8475;DHT22;4274;52.012;8.448;2022-10-31T18:03:17;16.60;99.90
8475;DHT22;4274;52.012;8.448;2022-10-31T18:05:57;16.60;99.90
8475;DHT22;4274;52.012;8.448;2022-10-31T18:08:27;16.60;99.90
8475;DHT22;4274;52.012;8.448;2022-10-31T18:10:53;16.60;99.90
8475;DHT22;4274;52.012;8.448;2022-10-31T18:13:19;16.50;99.90
8475;DHT22;4274;52.012;8.448;2022-10-31T18:15:44;16.50;99.90
8475;DHT22;4274;52.012;8.448;2022-10-31T18:18:10;16.50;99.90
8475;DHT22;4274;52.012;8.448;2022-10-31T18:20:35;16.40;99.90
8475;DHT22;4274;52.012;8.448;2022-10-31T18:23:01;16.40;99.90
8475;DHT22;4274;52.012;8.448;2022-10-31T18:25:26;16.30;99.90
8475;DHT22;4274;52.012;8.448;2022-10-31T18:27:52;16.40;99.90
8475;DHT22;4274;52.012;8.448;2022-10-31T18:30:17;16.30;99.90
8475;DHT22;4274;52.012;8.448;2022-10-31T18:32:43;16.30;99.90
8475;DHT22;4274;52.012;8.448;2022-10-31T18:35:09;16.30;99.90
8475;DHT22;4274;52.012;8.448;2022-10-31T18:37:35;16.30;99.90
8475;DHT22;4274;52.012;8.448;2022-10-31T18:40:00;16.30;99.90
8475;DHT22;4274;52.012;8.448;2022-10-31T18:42:26;16.30;99.90
8475;DHT22;4274;52.012;8.448;2022-10-31T18:44:51;16.20;99.90
8475;DHT22;4274;52.012;8.448;2022-10-31T18:47:17;16.20;99.90
8475;DHT22;4274;52.012;8.448;2022-10-31T18:49:43;16.20;99.90